Time;durP1;ratioP1;P1;durP2;ratioP2;P2;SDS_P1;SDS_P2;PMS_P1;PMS_P2;Temp;Humidity;BMP_temperature;BMP_pressure;BME280_temperature;BME280_humidity;BME280_pressure;Samples;Min_cycle;Max_cycle;Signal;HPM_P1;HPM_P2
2022/08/24 00:01:26;;;;;;;5.32;4.00;;;;;;;23.88;59.47;100875.25;5046110;28;20844;-61
2022/08/24 00:03:53;;;;;;;7.13;4.00;;;;;;;23.88;59.25;100880.66;5045938;28;20394;-63
2022/08/24 00:06:21;;;;;;;5.30;3.63;;;;;;;23.88;59.42;100879.84;5045733;28;20489;-61
2022/08/24 00:08:50;;;;;;;5.47;3.65;;;;;;;23.86;59.36;100882.81;5044727;28;20420;-62
2022/08/24 00:11:17;;;;;;;7.97;4.05;;;;;;;23.87;59.64;100895.25;5043358;28;20469;-61
2022/08/24 00:13:43;;;;;;;6.47;3.70;;;;;;;23.87;59.07;100905.28;5045366;28;20393;-61
2022/08/24 00:16:13;;;;;;;8.63;3.53;;;;;;;23.83;59.13;100918.50;5045818;28;20761;-64
2022/08/24 00:18:39;;;;;;;7.40;4.03;;;;;;;23.85;59.06;100919.88;5045555;28;20783;-61
2022/08/24 00:21:06;;;;;;;6.18;4.35;;;;;;;23.81;59.09;100926.88;5045169;28;20923;-61
2022/08/24 00:23:35;;;;;;;10.47;4.60;;;;;;;23.85;58.92;100936.13;5045341;28;20768;-60
2022/08/24 00:26:00;;;;;;;7.60;3.93;;;;;;;23.88;58.79;100937.53;5041202;28;20389;-62
2022/08/24 00:28:26;;;;;;;4.80;3.60;;;;;;;23.73;58.93;100934.59;5046040;28;20439;-61
2022/08/24 00:30:52;;;;;;;6.23;3.80;;;;;;;23.59;59.43;100945.00;5045861;28;20489;-61
2022/08/24 00:33:17;;;;;;;7.95;4.03;;;;;;;23.52;59.52;100938.97;5045929;28;20398;-61
2022/08/24 00:35:43;;;;;;;6.80;3.70;;;;;;;23.43;59.73;100942.09;5044035;28;20417;-61
2022/08/24 00:38:09;;;;;;;5.40;3.80;;;;;;;23.51;59.69;100946.22;5045541;28;20402;-61
2022/08/24 00:40:37;;;;;;;4.27;3.87;;;;;;;23.55;59.45;100946.56;5035383;28;20427;-61
2022/08/24 00:43:07;;;;;;;4.95;3.58;;;;;;;23.60;59.55;100938.50;5034917;28;20405;-63
2022/08/24 00:45:41;;;;;;;8.00;4.10;;;;;;;23.62;59.59;100930.94;5029688;28;20489;-61
2022/08/24 00:48:14;;;;;;;6.63;4.13;;;;;;;23.59;59.75;100926.06;5025781;28;20399;-61
2022/08/24 00:51:05;;;;;;;6.85;4.15;;;;;;;23.65;59.73;100930.44;5034508;28;20780;-62
2022/08/24 00:53:38;;;;;;;7.18;4.03;;;;;;;23.67;59.49;100931.00;5031565;28;20473;-62
2022/08/24 00:56:13;;;;;;;9.05;3.95;;;;;;;23.64;59.53;100931.50;5030702;28;20418;-61
2022/08/24 00:58:45;;;;;;;6.10;4.03;;;;;;;23.67;59.65;100934.53;5027369;28;20394;-61
2022/08/24 01:01:13;;;;;;;5.28;3.50;;;;;;;23.71;59.57;100928.63;5031531;28;20414;-62
2022/08/24 01:03:41;;;;;;;6.45;4.15;;;;;;;23.66;59.37;100929.41;5031451;28;20394;-62
2022/08/24 01:06:07;;;;;;;6.13;4.03;;;;;;;23.69;59.20;100928.06;5028195;28;20398;-61
2022/08/24 01:08:33;;;;;;;7.55;4.18;;;;;;;23.67;59.63;100936.44;5031473;28;20455;-61
2022/08/24 01:11:06;;;;;;;8.27;3.97;;;;;;;23.68;59.34;100938.06;5031307;28;20394;-61
2022/08/24 01:15:59;;;;;;;6.95;3.90;;;;;;;23.69;58.71;100955.94;5046308;28;20463;-61
2022/08/24 01:21:33;;;;;;;4.03;3.63;;;;;;;23.54;58.99;100974.69;5043252;28;20397;-60
2022/08/24 01:24:01;;;;;;;6.22;3.80;;;;;;;23.58;59.08;100978.53;5045682;28;20455;-61
2022/08/24 01:26:34;;;;;;;7.95;3.70;;;;;;;23.63;59.18;100973.19;5045940;28;20401;-61
2022/08/24 01:29:04;;;;;;;5.80;3.67;;;;;;;23.65;59.15;100968.34;5044028;28;20467;-61
2022/08/24 01:31:30;;;;;;;6.07;4.20;;;;;;;23.67;59.24;100980.53;5045740;28;20393;-60
2022/08/24 01:33:56;;;;;;;6.93;4.00;;;;;;;23.60;59.21;100987.22;5028139;28;20418;-61
2022/08/24 01:36:25;;;;;;;6.00;3.72;;;;;;;23.53;59.69;100978.47;5045883;28;20398;-62
2022/08/24 01:38:53;;;;;;;7.32;4.25;;;;;;;23.51;60.06;100975.19;5046104;28;20428;-60
2022/08/24 01:41:18;;;;;;;4.73;4.10;;;;;;;23.50;59.88;100968.13;5045929;28;20868;-61
2022/08/24 01:43:44;;;;;;;8.07;4.20;;;;;;;23.53;60.22;100967.63;5045460;28;20464;-61
2022/08/24 01:46:10;;;;;;;5.33;3.90;;;;;;;23.50;59.92;100963.56;5044714;28;20398;-61
2022/08/24 01:48:36;;;;;;;6.18;4.22;;;;;;;23.52;60.00;100966.81;5045791;28;20900;-60
2022/08/24 01:51:01;;;;;;;6.03;4.13;;;;;;;23.54;60.11;100977.41;5045785;28;20405;-60
2022/08/24 01:53:27;;;;;;;7.43;4.18;;;;;;;23.54;59.83;100990.94;5045825;28;20503;-61
2022/08/24 01:55:52;;;;;;;5.38;3.83;;;;;;;23.47;60.09;100986.50;5045624;28;20393;-61
2022/08/24 01:58:18;;;;;;;7.13;3.90;;;;;;;23.41;60.28;100986.69;5045829;28;20423;-61
2022/08/24 02:00:44;;;;;;;4.13;3.72;;;;;;;23.42;60.18;100977.50;5045658;28;20455;-61
2022/08/24 02:03:10;;;;;;;6.80;3.70;;;;;;;23.54;60.09;100982.81;5044202;28;20539;-61
2022/08/24 02:07:18;;;;;;;6.78;4.05;;;;;;;23.59;60.15;100972.88;5047375;28;20467;-62
2022/08/24 02:09:44;;;;;;;7.82;4.75;;;;;;;23.64;59.86;100963.97;5045975;28;20408;-61
2022/08/24 02:12:10;;;;;;;4.90;4.30;;;;;;;23.64;59.96;100962.13;5046169;28;20393;-61
2022/08/24 02:14:36;;;;;;;7.78;4.15;;;;;;;23.63;60.06;100956.94;5046517;28;20394;-61
2022/08/24 02:17:04;;;;;;;6.70;4.10;;;;;;;23.66;59.88;100965.38;5045996;28;20456;-61
2022/08/24 02:19:30;;;;;;;5.30;4.03;;;;;;;23.65;60.02;100960.22;5046203;28;20390;-61
2022/08/24 02:23:29;;;;;;;9.07;4.10;;;;;;;23.63;60.11;100946.13;5066101;27;20751;-61
2022/08/24 02:25:55;;;;;;;6.93;4.20;;;;;;;23.68;60.07;100954.31;5062250;28;20453;-61
2022/08/24 02:28:21;;;;;;;6.20;4.30;;;;;;;23.65;60.08;100957.50;5058909;28;20934;-61
2022/08/24 02:30:47;;;;;;;6.80;3.97;;;;;;;23.64;60.13;100964.81;5063473;28;20388;-60
2022/08/24 02:33:13;;;;;;;5.53;3.88;;;;;;;23.69;59.93;100961.34;5063413;28;20408;-61
2022/08/24 02:36:54;;;;;;;7.03;4.10;;;;;;;23.71;59.86;100964.63;5047898;28;20405;-64
2022/08/24 02:39:20;;;;;;;5.17;4.00;;;;;;;23.69;60.04;100955.94;5046328;28;20455;-61
2022/08/24 02:41:46;;;;;;;7.28;4.50;;;;;;;23.71;60.04;100955.69;5046413;28;20937;-61
2022/08/24 02:44:16;;;;;;;11.80;6.00;;;;;;;23.70;59.83;100957.59;5046214;28;20401;-61
2022/08/24 02:46:42;;;;;;;7.32;4.32;;;;;;;23.71;59.65;100967.31;5046537;28;20405;-61
2022/08/24 02:49:07;;;;;;;7.45;4.65;;;;;;;23.66;59.79;100962.69;5045998;28;20455;-61
2022/08/24 02:51:33;;;;;;;6.93;4.53;;;;;;;23.62;59.49;100958.84;5045799;28;20941;-61
2022/08/24 02:54:00;;;;;;;7.78;4.72;;;;;;;23.63;59.58;100973.19;5045992;28;20436;-62
2022/08/24 02:56:28;;;;;;;9.85;4.90;;;;;;;23.59;59.64;100966.66;5046115;28;20560;-61
2022/08/24 02:58:56;;;;;;;8.20;4.88;;;;;;;23.54;59.60;100972.00;5043569;28;20401;-61
2022/08/24 03:01:21;;;;;;;6.15;5.00;;;;;;;23.50;59.88;100970.81;5045902;28;20397;-63
2022/08/24 03:05:10;;;;;;;6.38;4.60;;;;;;;23.45;59.73;100982.41;5091935;27;20414;-61
2022/08/24 03:07:35;;;;;;;8.55;4.65;;;;;;;23.41;59.86;100979.41;5086798;28;20899;-61
2022/08/24 03:10:03;;;;;;;4.83;4.33;;;;;;;23.38;59.82;100977.19;5086053;28;20390;-61
2022/08/24 03:12:30;;;;;;;6.38;4.47;;;;;;;23.40;60.03;100975.03;5085907;28;20776;-61
2022/08/24 03:14:56;;;;;;;6.40;4.60;;;;;;;23.39;59.76;100970.72;5086430;28;20428;-61
2022/08/24 03:17:22;;;;;;;7.85;4.80;;;;;;;23.43;60.01;100973.75;5086160;28;20496;-61
2022/08/24 03:19:49;;;;;;;7.97;4.87;;;;;;;23.44;59.68;100972.66;5086367;28;20390;-61
2022/08/24 03:22:16;;;;;;;8.63;4.82;;;;;;;23.42;60.06;100961.25;5084568;28;20398;-61
2022/08/24 03:24:41;;;;;;;6.63;4.40;;;;;;;23.42;59.80;100969.38;5086694;28;20449;-61
2022/08/24 03:27:07;;;;;;;6.97;4.65;;;;;;;23.42;60.09;100966.69;5086004;28;20426;-61
2022/08/24 03:29:33;;;;;;;6.53;4.77;;;;;;;23.39;59.84;100959.88;5085378;28;20400;-61
2022/08/24 03:31:59;;;;;;;5.10;4.20;;;;;;;23.38;60.15;100971.75;5085499;28;20416;-61
2022/08/24 03:34:25;;;;;;;8.03;4.57;;;;;;;23.36;60.14;100973.91;5085221;28;20779;-61
2022/08/24 03:36:50;;;;;;;8.30;4.55;;;;;;;23.32;60.03;100967.38;5084843;28;20476;-61
2022/08/24 03:39:16;;;;;;;6.30;4.20;;;;;;;23.29;60.45;100967.84;5085972;28;20891;-61
2022/08/24 03:41:42;;;;;;;7.63;4.28;;;;;;;23.32;60.43;100977.34;5085965;28;20756;-65
2022/08/24 03:44:07;;;;;;;7.53;4.70;;;;;;;23.32;60.37;100975.47;5085538;28;20417;-63
2022/08/24 03:46:35;;;;;;;6.57;4.47;;;;;;;23.29;60.28;100978.69;5086102;28;20394;-61
2022/08/24 03:49:04;;;;;;;7.47;4.75;;;;;;;23.30;60.31;100972.22;5085654;28;20452;-62
2022/08/24 03:51:30;;;;;;;7.22;4.82;;;;;;;23.32;60.53;100982.75;5085784;28;20390;-61
2022/08/24 03:53:57;;;;;;;5.40;4.90;;;;;;;23.30;60.38;100985.72;5085575;28;20393;-61
2022/08/24 03:56:24;;;;;;;9.43;4.60;;;;;;;23.28;60.52;100979.72;5086094;28;20390;-62
2022/08/24 03:58:50;;;;;;;7.35;4.72;;;;;;;23.24;60.49;100975.88;5085453;28;20900;-61
2022/08/24 04:01:16;;;;;;;9.10;5.13;;;;;;;23.23;60.46;100979.69;5078058;28;20398;-61
2022/08/24 04:03:44;;;;;;;9.73;5.45;;;;;;;23.24;60.77;100979.41;5080150;28;20788;-61
2022/08/24 04:06:11;;;;;;;8.37;5.60;;;;;;;23.24;60.71;100986.72;5081940;28;20445;-61
2022/08/24 04:08:37;;;;;;;9.57;6.13;;;;;;;23.26;60.49;100976.47;5084266;28;20433;-62
2022/08/24 04:11:03;;;;;;;8.82;5.88;;;;;;;23.23;60.51;100985.09;5084635;28;20414;-61
2022/08/24 04:13:32;;;;;;;7.97;6.20;;;;;;;23.20;60.53;100978.28;5084889;28;20807;-61
2022/08/24 04:16:09;;;;;;;10.32;6.00;;;;;;;23.21;60.77;100979.91;5073742;28;20478;-63
2022/08/24 04:18:34;;;;;;;6.65;5.93;;;;;;;23.26;60.73;101003.50;5071030;28;20452;-64
2022/08/24 04:21:00;;;;;;;8.57;5.40;;;;;;;23.28;60.71;101013.03;5070192;28;20390;-61
2022/08/24 04:23:26;;;;;;;6.97;5.50;;;;;;;23.34;60.37;101032.84;5068776;28;20920;-61
2022/08/24 04:25:52;;;;;;;8.82;5.38;;;;;;;23.35;60.45;101042.59;5071028;28;20423;-61
2022/08/24 04:28:19;;;;;;;6.23;5.30;;;;;;;23.23;60.72;101050.00;5070775;28;20407;-61
2022/08/24 04:30:49;;;;;;;6.97;4.90;;;;;;;23.19;60.55;101048.84;5068416;28;20889;-61
2022/08/24 04:33:16;;;;;;;7.22;4.70;;;;;;;23.18;60.54;101047.22;5070661;28;20387;-61
2022/08/24 04:35:44;;;;;;;10.98;5.40;;;;;;;23.20;60.62;101061.31;5068014;28;20426;-60
2022/08/24 04:38:10;;;;;;;11.60;5.70;;;;;;;23.16;60.74;101058.28;5070820;28;20395;-60
2022/08/24 04:40:44;;;;;;;8.43;5.00;;;;;;;23.16;60.93;101062.88;5070632;28;20399;-61
2022/08/24 04:43:10;;;;;;;9.48;4.95;;;;;;;23.14;61.35;101057.69;5070373;28;20924;-60
2022/08/24 04:45:41;;;;;;;6.68;5.07;;;;;;;23.08;61.13;101059.50;5070414;28;20485;-60
2022/08/24 04:48:07;;;;;;;10.63;5.30;;;;;;;23.09;61.39;101061.13;5071262;28;20441;-60
2022/08/24 04:50:35;;;;;;;7.55;4.97;;;;;;;23.13;61.28;101064.16;5071290;28;20391;-60
2022/08/24 04:53:04;;;;;;;6.18;5.05;;;;;;;23.11;61.42;101062.78;5069308;28;20387;-62
2022/08/24 04:55:30;;;;;;;8.10;5.50;;;;;;;23.15;61.02;101056.63;5069318;28;20418;-61
2022/08/24 04:57:56;;;;;;;9.98;5.70;;;;;;;23.27;61.05;101053.84;5069298;28;20964;-61
2022/08/24 05:00:22;;;;;;;9.90;5.73;;;;;;;23.29;61.04;101044.41;5067964;28;20399;-62
2022/08/24 05:02:47;;;;;;;7.60;4.85;;;;;;;23.33;60.63;101038.50;5069484;28;20391;-62
2022/08/24 05:05:13;;;;;;;9.63;5.73;;;;;;;23.37;60.96;101040.47;5070244;28;20478;-61
2022/08/24 05:07:39;;;;;;;7.28;4.93;;;;;;;23.42;60.88;101032.41;5070610;28;20410;-61
2022/08/24 05:12:19;;;;;;;11.13;5.40;;;;;;;23.52;60.69;101034.47;5046978;28;21009;-61
2022/08/24 05:14:45;;;;;;;11.27;4.90;;;;;;;23.49;60.60;101032.25;5046851;28;20489;-62
2022/08/24 05:17:10;;;;;;;9.80;4.80;;;;;;;23.54;60.37;101026.09;5046617;28;20775;-61
2022/08/24 05:19:36;;;;;;;12.38;5.25;;;;;;;23.61;60.50;101030.25;5046491;28;20405;-61
2022/08/24 05:22:02;;;;;;;8.90;5.30;;;;;;;23.63;60.25;101035.44;5046386;28;20402;-60
2022/08/24 05:24:28;;;;;;;8.95;5.10;;;;;;;23.69;60.05;101036.31;5045372;28;20394;-61
2022/08/24 05:26:54;;;;;;;12.13;5.40;;;;;;;23.69;60.18;101028.19;5046508;28;20426;-61
2022/08/24 05:29:20;;;;;;;14.52;5.70;;;;;;;23.73;59.99;101034.75;5046312;28;20484;-62
2022/08/24 05:31:45;;;;;;;11.32;5.40;;;;;;;23.74;60.21;101034.50;5045960;28;20414;-60
2022/08/24 05:34:12;;;;;;;11.15;5.47;;;;;;;23.75;60.03;101038.84;5046667;28;20425;-61
2022/08/24 05:36:39;;;;;;;9.68;5.63;;;;;;;23.77;60.22;101044.84;5046502;28;20377;-60
2022/08/24 05:39:11;;;;;;;12.38;5.50;;;;;;;23.78;60.32;101049.16;5046361;28;20389;-60
2022/08/24 05:41:37;;;;;;;8.73;5.30;;;;;;;23.81;59.87;101045.19;5046434;28;20979;-60
2022/08/24 05:44:03;;;;;;;10.90;5.30;;;;;;;23.86;59.84;101045.25;5045555;28;20392;-60
2022/08/24 05:46:30;;;;;;;7.13;4.93;;;;;;;23.86;59.68;101050.66;5044883;28;20488;-59
2022/08/24 05:48:58;;;;;;;14.55;5.25;;;;;;;23.91;59.68;101063.44;5046173;28;20394;-61
2022/08/24 05:51:24;;;;;;;12.55;5.60;;;;;;;23.92;59.88;101057.78;5046069;28;20464;-60
2022/08/24 05:53:50;;;;;;;11.88;5.95;;;;;;;23.99;59.72;101058.41;5045960;28;20465;-60
2022/08/24 05:56:18;;;;;;;11.57;5.93;;;;;;;23.99;59.42;101052.19;5045421;28;20489;-60
2022/08/24 05:58:45;;;;;;;8.45;5.20;;;;;;;24.08;59.53;101063.41;5045567;28;20397;-61
2022/08/24 06:01:12;;;;;;;8.98;5.47;;;;;;;24.10;59.42;101051.22;5045573;28;20386;-61
2022/08/24 06:03:38;;;;;;;10.32;5.28;;;;;;;24.14;59.41;101062.38;5046119;28;20876;-61
2022/08/24 06:06:06;;;;;;;9.40;5.20;;;;;;;24.14;59.41;101065.91;5045662;28;20396;-61
2022/08/24 06:08:34;;;;;;;6.47;4.43;;;;;;;24.16;59.16;101061.03;5030022;28;20397;-62
2022/08/24 06:11:01;;;;;;;6.63;4.97;;;;;;;24.11;59.15;101057.47;5054990;28;20447;-62
2022/08/24 06:13:28;;;;;;;11.82;5.32;;;;;;;24.11;59.17;101060.16;5065149;28;20399;-66
2022/08/24 06:16:08;;;;;;;10.80;6.82;;;;;;;24.15;59.11;101047.78;5065470;28;20400;-62
2022/08/24 06:18:34;;;;;;;10.32;5.43;;;;;;;24.22;59.08;101051.13;5064262;28;20472;-61
2022/08/24 06:21:04;;;;;;;8.38;4.90;;;;;;;24.21;59.28;101049.47;5065181;28;21013;-61
2022/08/24 06:23:30;;;;;;;11.60;5.93;;;;;;;24.25;59.34;101053.28;5052784;28;20438;-63
2022/08/24 06:28:41;;;;;;;10.10;5.57;;;;;;;24.24;59.19;101059.81;5042059;28;20426;-61
2022/08/24 06:31:07;;;;;;;7.15;5.35;;;;;;;24.07;59.97;101057.16;5051261;28;20437;-62
2022/08/24 06:33:33;;;;;;;7.57;5.33;;;;;;;24.07;60.06;101061.75;5052328;28;20397;-61
2022/08/24 06:35:58;;;;;;;8.02;5.57;;;;;;;24.15;60.18;101059.44;5052064;28;20393;-61
2022/08/24 06:38:23;;;;;;;6.73;6.07;;;;;;;24.11;59.95;101060.16;5051434;28;20403;-61
2022/08/24 06:40:49;;;;;;;8.17;6.03;;;;;;;24.11;60.14;101054.75;5051866;28;20766;-61
2022/08/24 06:43:15;;;;;;;8.38;6.00;;;;;;;24.17;60.05;101051.88;5051858;28;20407;-61
2022/08/24 06:45:41;;;;;;;7.53;6.27;;;;;;;24.16;60.32;101054.81;5051168;28;20384;-61
2022/08/24 06:48:07;;;;;;;10.07;6.55;;;;;;;24.39;60.48;101051.84;5048182;28;20397;-61
2022/08/24 06:50:33;;;;;;;7.60;5.88;;;;;;;24.33;60.91;101050.16;5050441;28;20424;-62
2022/08/24 06:52:59;;;;;;;8.68;5.63;;;;;;;24.19;61.52;101052.44;5051751;28;20398;-62
2022/08/24 06:55:26;;;;;;;8.68;6.65;;;;;;;24.18;61.93;101047.25;5051331;28;20795;-61
2022/08/24 06:57:52;;;;;;;8.20;5.63;;;;;;;24.33;61.42;101052.06;5051571;28;20414;-61
2022/08/24 07:00:18;;;;;;;7.70;5.75;;;;;;;24.48;61.54;101043.28;5050875;28;20758;-60
2022/08/24 07:02:43;;;;;;;7.47;5.80;;;;;;;24.47;61.18;101044.31;5050859;28;20396;-61
2022/08/24 07:05:11;;;;;;;7.57;6.00;;;;;;;24.39;61.46;101049.13;5050082;28;20461;-61
2022/08/24 07:07:37;;;;;;;7.75;5.38;;;;;;;24.52;61.57;101056.03;5050517;28;20520;-61
2022/08/24 07:10:04;;;;;;;5.60;4.95;;;;;;;24.74;60.32;101047.91;5050818;28;20401;-61
2022/08/24 07:14:20;;;;;;;6.43;5.50;;;;;;;24.79;59.57;101047.13;5063474;27;2152964;-62
2022/08/24 07:16:46;;;;;;;6.63;5.67;;;;;;;24.91;59.39;101055.09;5136404;27;20403;-63
2022/08/24 07:19:11;;;;;;;9.32;6.72;;;;;;;25.02;59.25;101047.88;5133465;27;20761;-61
2022/08/24 07:21:37;;;;;;;6.77;5.70;;;;;;;25.34;58.64;101054.13;5136899;27;20779;-61
2022/08/24 07:24:03;;;;;;;6.93;5.70;;;;;;;25.19;58.79;101043.09;5137162;27;20394;-64
2022/08/24 07:26:30;;;;;;;9.45;5.72;;;;;;;25.27;58.91;101044.56;5136213;27;20393;-62
2022/08/24 07:29:05;;;;;;;8.60;5.55;;;;;;;25.28;58.80;101049.75;5125123;27;20393;-61
2022/08/24 07:31:32;;;;;;;7.13;5.68;;;;;;;25.31;58.80;101051.91;5141844;27;20940;-61
2022/08/24 07:33:58;;;;;;;7.47;5.25;;;;;;;25.28;58.22;101041.59;5142391;27;20400;-61
2022/08/24 07:36:23;;;;;;;7.38;5.43;;;;;;;25.37;57.87;101042.75;5147317;27;20400;-62
2022/08/24 07:38:53;;;;;;;15.53;5.30;;;;;;;25.63;57.63;101045.63;5147945;27;20385;-62
2022/08/24 07:41:21;;;;;;;14.45;5.85;;;;;;;25.87;57.21;101042.47;5147779;27;20488;-62
2022/08/24 07:43:47;;;;;;;12.60;6.75;;;;;;;25.94;57.08;101041.16;5147597;27;20385;-62
2022/08/24 07:46:12;;;;;;;14.80;6.97;;;;;;;26.07;56.74;101034.47;5147295;27;20403;-62
2022/08/24 07:48:39;;;;;;;13.32;6.70;;;;;;;26.28;56.02;101040.75;5147196;27;20393;-62
2022/08/24 07:51:09;;;;;;;9.35;6.50;;;;;;;26.45;55.51;101047.88;5147867;27;20389;-62
2022/08/24 07:53:35;;;;;;;8.32;6.55;;;;;;;26.59;55.27;101050.88;5147337;27;20405;-63
2022/08/24 07:56:01;;;;;;;9.90;6.83;;;;;;;26.74;54.94;101047.41;5147317;27;20373;-62
2022/08/24 07:58:26;;;;;;;7.05;5.93;;;;;;;26.84;54.10;101042.78;5147257;27;20435;-63
2022/08/24 08:00:52;;;;;;;10.77;6.33;;;;;;;26.90;53.90;101049.03;5147476;27;20480;-62
2022/08/24 08:03:18;;;;;;;7.97;6.15;;;;;;;27.00;53.79;101046.34;5146861;27;20397;-61
2022/08/24 08:05:44;;;;;;;8.47;6.50;;;;;;;27.14;53.15;101053.97;5147224;27;20377;-62
2022/08/24 08:08:10;;;;;;;8.13;6.00;;;;;;;27.21;52.98;101059.94;5147450;27;20441;-62
2022/08/24 08:10:36;;;;;;;6.78;5.97;;;;;;;27.19;52.22;101067.53;5146269;27;20389;-62
2022/08/24 08:13:04;;;;;;;5.90;5.30;;;;;;;27.30;51.49;101073.81;5146764;27;20755;-62
2022/08/24 08:15:30;;;;;;;7.43;5.82;;;;;;;27.33;51.66;101074.09;5146250;27;20381;-63
2022/08/24 08:17:56;;;;;;;11.68;6.20;;;;;;;27.37;51.63;101077.94;5147081;27;20377;-61
2022/08/24 08:20:22;;;;;;;8.63;7.72;;;;;;;27.24;51.73;101075.72;5146583;27;20759;-63
2022/08/24 08:25:37;;;;;;;8.68;7.78;;;;;;;27.52;51.72;101079.00;5120268;27;20473;-62
2022/08/24 08:28:04;;;;;;;7.80;7.00;;;;;;;27.69;50.81;101073.22;5119397;27;20397;-61
2022/08/24 08:30:30;;;;;;;8.05;6.55;;;;;;;27.85;50.70;101080.25;5133077;27;20744;-61
2022/08/24 08:32:56;;;;;;;10.87;6.63;;;;;;;27.87;50.40;101077.25;5132651;27;20409;-61
2022/08/24 08:35:21;;;;;;;6.72;6.13;;;;;;;27.53;50.58;101080.59;5133309;27;20736;-62
2022/08/24 08:37:48;;;;;;;7.07;6.37;;;;;;;27.45;50.51;101080.06;5130498;27;20502;-61
2022/08/24 08:40:54;;;;;;;8.13;6.63;;;;;;;27.59;50.44;101082.25;5118179;27;20439;-61
2022/08/24 08:43:44;;;;;;;11.27;7.28;;;;;;;27.74;50.56;101081.38;5042682;27;20879;-61
2022/08/24 08:46:30;;;;;;;10.35;7.05;;;;;;;27.87;50.01;101080.78;5099972;28;20911;-60
2022/08/24 08:49:01;;;;;;;7.88;6.65;;;;;;;27.89;49.63;101072.34;5129354;27;20378;-61
2022/08/24 08:51:32;;;;;;;7.63;6.80;;;;;;;28.00;49.22;101076.69;5130402;27;20430;-62
2022/08/24 08:54:04;;;;;;;12.18;8.13;;;;;;;28.18;49.58;101076.09;5132225;27;20417;-62
2022/08/24 08:56:51;;;;;;;8.18;7.47;;;;;;;28.30;48.99;101075.75;5120178;27;20387;-60
2022/08/24 08:59:22;;;;;;;9.50;7.30;;;;;;;28.35;48.32;101075.72;5114931;27;20394;-61
2022/08/24 09:02:40;;;;;;;8.20;7.40;;;;;;;28.56;47.86;101081.13;5132151;27;20370;-62
2022/08/24 09:05:11;;;;;;;11.90;7.90;;;;;;;28.65;47.45;101076.69;5132770;27;20468;-61
2022/08/24 09:08:22;;;;;;;9.68;7.40;;;;;;;28.75;47.50;101071.13;5132051;27;20390;-62
2022/08/24 09:11:00;;;;;;;8.45;7.45;;;;;;;28.79;47.34;101068.66;5029232;28;20482;-62
2022/08/24 09:13:52;;;;;;;8.13;7.35;;;;;;;28.91;46.42;101069.13;5117127;27;20478;-62
2022/08/24 09:16:39;;;;;;;9.85;7.47;;;;;;;28.90;46.59;101067.50;5120859;27;20445;-62
2022/08/24 09:19:25;;;;;;;8.15;7.35;;;;;;;29.07;46.16;101069.81;5129142;27;20384;-61
2022/08/24 09:22:06;;;;;;;9.50;6.75;;;;;;;28.97;46.22;101073.44;5130520;27;20748;-65
2022/08/24 09:25:01;;;;;;;7.13;6.43;;;;;;;29.16;46.11;101062.66;5111505;28;20399;-64
2022/08/24 09:27:48;;;;;;;8.85;6.72;;;;;;;29.19;46.45;101057.72;5114945;27;20878;-65
2022/08/24 09:30:13;;;;;;;7.97;6.75;;;;;;;28.68;47.35;101056.19;5128096;27;20466;-63
2022/08/24 09:33:14;;;;;;;8.67;7.00;;;;;;;28.41;47.94;101066.44;5132463;27;20443;-62
2022/08/24 09:36:05;;;;;;;8.05;6.57;;;;;;;28.03;48.00;101073.41;5131299;27;20413;-62
2022/08/24 09:39:02;;;;;;;8.55;7.10;;;;;;;28.34;47.93;101068.66;5131659;27;20380;-63
2022/08/24 09:41:47;;;;;;;6.80;6.20;;;;;;;28.47;47.27;101082.75;5131777;27;20378;-62
2022/08/24 09:44:55;;;;;;;9.57;6.70;;;;;;;28.60;47.17;101074.78;5131778;27;20821;-62
2022/08/24 09:47:47;;;;;;;6.97;6.32;;;;;;;28.60;46.77;101080.25;5130950;27;20381;-62
2022/08/24 09:50:25;;;;;;;7.93;7.18;;;;;;;28.55;46.50;101076.75;5129922;27;20382;-63
2022/08/24 09:53:18;;;;;;;7.72;6.82;;;;;;;28.74;46.15;101071.44;5130876;27;20765;-61
2022/08/24 09:55:58;;;;;;;8.32;7.28;;;;;;;28.73;46.36;101076.06;5129537;27;20370;-64
2022/08/24 09:58:56;;;;;;;8.95;7.28;;;;;;;29.08;46.21;101068.72;5130643;27;20374;-62
2022/08/24 10:01:59;;;;;;;8.68;7.88;;;;;;;29.29;45.73;101069.38;5131354;27;20376;-61
2022/08/24 10:04:33;;;;;;;10.07;7.82;;;;;;;29.26;45.34;101075.41;5131766;27;20419;-61
2022/08/24 10:07:20;;;;;;;10.02;8.60;;;;;;;28.92;45.44;101080.88;5131605;27;20374;-61
2022/08/24 10:10:13;;;;;;;10.03;8.17;;;;;;;28.84;45.92;101074.09;5131543;27;20374;-60
2022/08/24 10:12:50;;;;;;;11.85;10.32;;;;;;;28.95;45.67;101074.81;5131465;27;20421;-62
2022/08/24 10:15:22;;;;;;;10.40;8.63;;;;;;;28.75;45.65;101071.13;5131233;27;20378;-61
2022/08/24 10:18:16;;;;;;;9.18;8.27;;;;;;;28.80;45.92;101075.75;5131566;27;20397;-61
2022/08/24 10:21:15;;;;;;;10.80;8.10;;;;;;;29.09;45.63;101075.78;5130995;27;20385;-61
2022/08/24 10:24:35;;;;;;;8.63;7.72;;;;;;;29.14;45.29;101062.13;5131073;27;20889;-62
2022/08/24 10:27:27;;;;;;;9.27;8.00;;;;;;;29.28;45.49;101066.91;5027853;28;20449;-61
2022/08/24 10:30:24;;;;;;;10.15;8.02;;;;;;;29.35;45.60;101060.03;5128040;27;20466;-61
2022/08/24 10:32:58;;;;;;;10.57;8.30;;;;;;;29.44;45.36;101076.63;5130791;27;20406;-62
2022/08/24 10:35:29;;;;;;;9.73;8.10;;;;;;;29.42;45.10;101062.41;5130748;27;20447;-61
2022/08/24 10:41:14;;;;;;;10.05;8.45;;;;;;;29.47;44.55;101064.28;5130791;27;20442;-61
2022/08/24 10:44:14;;;;;;;9.68;8.68;;;;;;;29.63;44.31;101063.03;5130886;27;20833;-61
2022/08/24 10:46:48;;;;;;;10.48;8.70;;;;;;;29.87;43.83;101059.50;5130666;27;20373;-61
2022/08/24 10:49:13;;;;;;;12.52;8.35;;;;;;;29.98;43.39;101057.47;5130621;27;20752;-61
2022/08/24 10:51:56;;;;;;;9.97;8.13;;;;;;;29.98;43.13;101058.28;5130569;27;20469;-62
2022/08/24 10:54:22;;;;;;;11.47;7.93;;;;;;;29.82;43.38;101054.09;5130535;27;20405;-61
2022/08/24 10:57:14;;;;;;;9.63;7.93;;;;;;;30.07;43.24;101053.78;5130891;27;20539;-61
2022/08/24 11:00:00;;;;;;;9.87;8.13;;;;;;;30.16;42.51;101053.13;5130761;27;20393;-61
2022/08/24 11:02:35;;;;;;;9.25;8.23;;;;;;;29.98;43.02;101058.28;5130771;27;20378;-61
2022/08/24 11:05:05;;;;;;;10.10;9.10;;;;;;;29.41;43.82;101051.81;5130637;27;20374;-61
2022/08/24 11:07:31;;;;;;;9.00;8.10;;;;;;;29.18;43.98;101051.47;5130672;27;20385;-62
2022/08/24 11:10:08;;;;;;;10.07;8.55;;;;;;;29.16;44.24;101043.56;5130322;27;20426;-62
2022/08/24 11:12:40;;;;;;;11.70;8.27;;;;;;;29.43;43.73;101044.13;5130273;28;20489;-62
2022/08/24 11:15:22;;;;;;;14.18;8.98;;;;;;;29.77;43.67;101044.06;5130582;28;20372;-61
2022/08/24 11:18:00;;;;;;;11.10;8.52;;;;;;;29.91;43.30;101036.78;5130209;28;20412;-61
2022/08/24 11:20:31;;;;;;;12.23;9.25;;;;;;;29.90;43.10;101034.31;5130407;28;20377;-61
2022/08/24 11:23:06;;;;;;;12.07;8.87;;;;;;;29.85;43.27;101037.13;5130242;28;20389;-61
2022/08/24 11:25:36;;;;;;;8.68;7.80;;;;;;;29.60;43.53;101030.81;5130501;28;20388;-61
2022/08/24 11:28:09;;;;;;;9.88;8.48;;;;;;;29.68;43.93;101030.19;5130284;28;20514;-62
2022/08/24 11:30:39;;;;;;;8.43;7.55;;;;;;;29.51;43.33;101030.66;5129848;28;20374;-64
2022/08/24 11:33:30;;;;;;;10.77;8.30;;;;;;;29.71;43.53;101031.50;5129216;28;21024;-61
2022/08/24 11:35:59;;;;;;;8.63;7.72;;;;;;;29.94;43.55;101029.88;5128091;28;20966;-63
2022/08/24 11:38:30;;;;;;;8.25;6.90;;;;;;;30.03;42.59;101032.78;5130081;28;20386;-61
2022/08/24 11:41:11;;;;;;;10.82;7.78;;;;;;;29.98;42.33;101036.41;5129879;28;20428;-61
2022/08/24 11:44:27;;;;;;;8.73;7.28;;;;;;;29.92;42.50;101026.63;5129952;28;20808;-61
2022/08/24 11:47:23;;;;;;;8.85;7.38;;;;;;;30.05;43.18;101027.84;5085666;28;20390;-60
2022/08/24 11:49:57;;;;;;;8.73;6.80;;;;;;;30.11;42.48;101015.75;5113238;28;20393;-60
2022/08/24 11:52:38;;;;;;;9.60;7.07;;;;;;;30.18;42.92;101015.34;5111839;28;20388;-60
2022/08/24 11:55:38;;;;;;;15.70;9.48;;;;;;;30.23;42.94;101012.56;5130323;28;20417;-60
2022/08/24 11:58:38;;;;;;;9.33;6.80;;;;;;;30.28;42.65;101007.03;5096489;28;20382;-63
2022/08/24 12:01:12;;;;;;;7.65;6.80;;;;;;;30.23;42.43;101010.66;5029859;28;20426;-61
2022/08/24 12:04:06;;;;;;;8.30;7.03;;;;;;;30.21;42.23;101009.31;5118686;27;20459;-60
2022/08/24 12:06:43;;;;;;;7.63;6.88;;;;;;;30.24;41.56;101001.31;5133927;27;20370;-60
2022/08/24 12:09:19;;;;;;;7.50;5.85;;;;;;;30.01;41.51;101007.69;5134054;27;20440;-61